Time;durP1;ratioP1;P1;durP2;ratioP2;P2;SDS_P1;SDS_P2;PMS_P1;PMS_P2;Temp;Humidity;BMP_temperature;BMP_pressure;BME280_temperature;BME280_humidity;BME280_pressure;Samples;Min_cycle;Max_cycle;Signal;HPM_P1;HPM_P2
2022/04/02 00:01:28;;;;;;;9.43;7.47;;;2.70;99.90;;;1.87;100.00;99580.59;4996708;28;20077;-78
2022/04/02 00:03:55;;;;;;;7.60;6.88;;;3.60;99.90;;;1.82;100.00;99570.25;5003062;28;20046;-80
2022/04/02 00:06:22;;;;;;;8.68;7.82;;;3.10;99.90;;;1.73;100.00;99573.72;4985264;28;20042;-82
2022/04/02 00:08:49;;;;;;;8.30;7.38;;;2.70;99.90;;;1.79;100.00;99567.66;5002672;28;20062;-79
2022/04/02 00:11:16;;;;;;;8.75;7.50;;;4.00;99.90;;;1.79;100.00;99572.84;4981777;28;20050;-80
2022/04/02 00:13:43;;;;;;;8.77;7.93;;;3.40;99.90;;;1.80;100.00;99572.84;4977117;28;20153;-80
2022/04/02 00:16:11;;;;;;;9.20;7.88;;;5.00;99.90;;;1.75;100.00;99568.53;4992365;28;20126;-81
2022/04/02 00:18:39;;;;;;;10.23;7.38;;;5.50;99.90;;;1.78;100.00;99559.03;4993980;28;20054;-81
2022/04/02 00:21:06;;;;;;;8.15;7.30;;;2.50;99.90;;;1.74;100.00;99567.69;4975779;28;20054;-78
2022/04/02 00:23:39;;;;;;;7.90;7.10;;;2.50;99.90;;;1.77;100.00;99570.25;4976639;28;20149;-79
2022/04/02 00:26:08;;;;;;;7.80;7.00;;;5.40;99.90;;;1.75;100.00;99569.41;4992409;28;20089;-79
2022/04/02 00:28:39;;;;;;;11.77;8.30;;;5.20;99.90;;;1.74;100.00;99570.28;4992264;28;20121;-79
2022/04/02 00:31:12;;;;;;;8.00;6.70;;;3.10;99.90;;;1.77;100.00;99577.16;4991639;28;20057;-81
2022/04/02 00:33:44;;;;;;;7.65;6.75;;;5.40;99.90;;;1.86;100.00;99579.75;4975474;28;20137;-79
2022/04/02 00:36:13;;;;;;;11.25;7.43;;;4.50;99.90;;;1.83;100.00;99564.22;4991254;28;20054;-79
2022/04/02 00:38:41;;;;;;;8.38;7.00;;;3.60;99.90;;;1.88;100.00;99572.00;4992150;28;20065;-82
2022/04/02 00:41:09;;;;;;;7.40;6.57;;;2.60;99.90;;;1.89;100.00;99576.31;4979978;28;20137;-83
2022/04/02 00:43:42;;;;;;;8.82;6.32;;;3.60;99.90;;;1.82;100.00;99567.66;4996949;28;20070;-82
2022/04/02 00:46:12;;;;;;;8.85;6.43;;;5.20;99.90;;;1.75;100.00;99565.94;4993140;28;20074;-80
2022/04/02 00:48:40;;;;;;;8.57;7.63;;;5.40;99.90;;;1.85;100.00;99565.06;4975669;28;20038;-81
2022/04/02 00:51:12;;;;;;;9.40;6.90;;;5.10;99.90;;;1.84;100.00;99556.41;4991810;28;20046;-81
2022/04/02 00:53:45;;;;;;;7.93;6.43;;;2.60;99.90;;;1.79;100.00;99552.97;4990607;28;20054;-80
2022/04/02 00:56:14;;;;;;;7.05;6.32;;;2.70;99.90;;;1.80;100.00;99553.84;4991839;28;20058;-81
2022/04/02 00:58:42;;;;;;;7.63;6.55;;;4.10;99.90;;;1.79;100.00;99554.69;4975572;28;20149;-81
2022/04/02 01:01:16;;;;;;;9.25;7.00;;;4.50;99.90;;;1.81;100.00;99561.59;4992958;28;20054;-80
2022/04/02 01:03:48;;;;;;;8.95;7.32;;;5.20;99.90;;;1.85;100.00;99562.47;4994555;28;20038;-80
2022/04/02 01:06:20;;;;;;;7.97;6.47;;;2.80;99.90;;;1.78;100.00;99563.31;4997017;28;20088;-81
2022/04/02 01:08:49;;;;;;;9.13;7.70;;;4.20;99.90;;;1.84;100.00;99565.94;4983145;28;20062;-82
2022/04/02 01:11:16;;;;;;;8.77;7.55;;;5.00;99.90;;;1.85;100.00;99565.06;5000419;28;20405;-81
2022/04/02 01:13:48;;;;;;;7.32;6.65;;;4.90;99.90;;;1.81;100.00;99558.16;4996857;28;20499;-79
2022/04/02 01:16:18;;;;;;;7.97;7.18;;;3.30;99.90;;;1.88;100.00;99570.25;4983038;28;20050;-78
2022/04/02 01:18:48;;;;;;;8.45;7.35;;;4.50;99.90;;;1.87;100.00;99571.09;4996521;28;20305;-81
2022/04/02 01:21:22;;;;;;;7.93;6.25;;;2.70;99.90;;;1.86;100.00;99569.38;4981020;28;20046;-80
2022/04/02 01:23:54;;;;;;;9.82;7.22;;;4.90;99.90;;;1.82;100.00;99578.88;4966141;28;20038;-82
2022/04/02 01:26:22;;;;;;;8.38;6.88;;;3.40;99.90;;;1.83;100.00;99580.63;4984362;28;20491;-82
2022/04/02 01:29:00;;;;;;;8.50;6.57;;;4.10;99.90;;;1.82;100.00;99576.28;5004470;28;20070;-82
2022/04/02 01:31:44;;;;;;;8.63;7.25;;;4.50;99.90;;;1.76;100.00;99576.31;5007214;28;20054;-81
2022/04/02 01:34:13;;;;;;;8.45;6.57;;;4.90;99.90;;;1.80;100.00;99578.03;4980907;28;20053;-82
2022/04/02 01:36:43;;;;;;;6.78;5.95;;;3.90;99.90;;;1.86;100.00;99587.53;4982629;28;20074;-79
2022/04/02 01:39:20;;;;;;;7.75;6.72;;;4.20;99.90;;;1.87;100.00;99594.47;4970477;28;20050;-79
2022/04/02 01:41:47;;;;;;;7.28;6.35;;;2.60;99.90;;;1.83;100.00;99597.94;5014481;28;20042;-81
2022/04/02 01:44:19;;;;;;;10.00;6.57;;;2.80;99.90;;;1.83;100.00;99584.97;4996127;28;20322;-79
2022/04/02 01:46:46;;;;;;;8.43;6.65;;;4.20;99.90;;;1.80;100.00;99590.16;4979884;28;20054;-80
2022/04/02 01:49:13;;;;;;;7.30;6.60;;;4.60;99.90;;;1.84;100.00;99599.66;4997945;28;20043;-78
2022/04/02 01:51:40;;;;;;;6.93;6.22;;;4.80;99.90;;;1.80;100.00;99591.00;4981774;28;20567;-80
2022/04/02 01:54:13;;;;;;;7.50;6.70;;;5.30;99.90;;;1.91;100.00;99609.16;4986751;28;20054;-80
2022/04/02 01:56:41;;;;;;;10.50;6.75;;;2.80;99.90;;;1.93;100.00;99602.22;4999150;28;20058;-78
2022/04/02 01:59:09;;;;;;;7.75;6.95;;;2.60;99.90;;;1.94;100.00;99603.09;4979421;28;20060;-79
2022/04/02 02:01:37;;;;;;;8.63;7.07;;;2.80;99.90;;;1.87;100.00;99607.44;4995209;28;20054;-79
2022/04/02 02:04:04;;;;;;;12.82;8.25;;;5.30;99.90;;;1.88;100.00;99608.31;4985306;28;20097;-80
2022/04/02 02:06:33;;;;;;;11.88;8.30;;;2.80;99.90;;;1.89;100.00;99607.44;4985642;28;20043;-79
2022/04/02 02:09:01;;;;;;;8.80;7.22;;;4.90;99.90;;;1.85;100.00;99611.75;4995194;28;20144;-79
2022/04/02 02:11:52;;;;;;;9.18;7.32;;;3.50;99.90;;;1.87;100.00;99609.16;4982203;28;20065;-82
2022/04/02 02:14:19;;;;;;;8.60;7.40;;;4.30;99.90;;;1.90;100.00;99617.81;4978201;28;20054;-80
2022/04/02 02:16:54;;;;;;;8.30;6.97;;;4.00;99.90;;;1.89;100.00;99620.41;4978991;28;20654;-78
2022/04/02 02:19:21;;;;;;;10.18;8.23;;;2.70;99.90;;;1.94;100.00;99623.84;4976715;28;20105;-79
2022/04/02 02:21:50;;;;;;;10.60;7.75;;;2.70;99.90;;;1.86;100.00;99623.88;4974605;28;20047;-78
2022/04/02 02:24:18;;;;;;;12.65;7.43;;;2.70;99.90;;;1.87;100.00;99627.31;4992843;28;20050;-79
2022/04/02 02:26:46;;;;;;;9.77;7.50;;;5.00;99.90;;;1.89;100.00;99618.66;4984655;28;20439;-82
2022/04/02 02:29:24;;;;;;;7.68;6.60;;;4.20;99.90;;;1.88;100.00;99618.69;4988524;28;20042;-82
2022/04/02 02:31:52;;;;;;;7.78;7.10;;;4.80;99.90;;;1.82;100.00;99624.75;4994990;28;20051;-81
2022/04/02 02:37:09;;;;;;;7.38;6.68;;;4.40;99.90;;;1.82;100.00;99635.97;4996850;28;20050;-82
2022/04/02 02:39:42;;;;;;;6.78;6.18;;;2.50;99.90;;;1.84;100.00;99626.44;4994392;28;20047;-80
2022/04/02 02:42:21;;;;;;;8.05;7.32;;;3.10;99.90;;;1.85;100.00;99624.72;4980247;28;20068;-79
2022/04/02 02:44:55;;;;;;;8.10;6.75;;;5.40;99.90;;;1.88;100.00;99623.88;4979986;28;20423;-82
2022/04/02 02:47:24;;;;;;;6.93;6.32;;;5.40;99.90;;;1.89;100.00;99631.63;4993814;28;20559;-83
2022/04/02 02:49:53;;;;;;;6.90;6.20;;;2.80;99.90;;;1.78;100.00;99629.06;4988109;28;20503;-82
2022/04/02 02:52:27;;;;;;;7.55;6.28;;;4.30;99.90;;;1.81;100.00;99623.00;4970702;28;20079;-79
2022/04/02 02:54:56;;;;;;;6.43;5.82;;;4.10;99.90;;;1.77;100.00;99632.50;5002209;28;20046;-82
2022/04/02 02:57:24;;;;;;;6.75;5.63;;;3.80;99.90;;;1.83;100.00;99636.84;4985310;28;20061;-80
2022/04/02 02:59:52;;;;;;;7.40;6.57;;;4.30;99.90;;;1.83;100.00;99636.84;5001083;28;20069;-81
2022/04/02 03:02:20;;;;;;;7.15;6.43;;;5.10;99.90;;;1.77;100.00;99639.41;5001209;28;20050;-80
2022/04/02 03:04:52;;;;;;;6.43;5.82;;;3.70;99.90;;;1.81;100.00;99647.22;4994538;28;20435;-81
2022/04/02 03:07:28;;;;;;;6.40;5.70;;;4.30;99.90;;;1.75;100.00;99638.56;4977182;28;20054;-81
2022/04/02 03:10:00;;;;;;;6.60;5.90;;;4.00;99.90;;;1.77;100.00;99640.28;4976341;28;20144;-82
2022/04/02 03:12:29;;;;;;;5.65;5.15;;;3.80;99.90;;;1.85;100.00;99661.06;4961024;28;20681;-80
2022/04/02 03:15:01;;;;;;;6.97;5.70;;;2.50;99.90;;;1.75;100.00;99646.34;4977138;28;20523;-81
2022/04/02 03:17:31;;;;;;;6.35;5.75;;;4.90;99.90;;;1.81;100.00;99655.00;5009148;28;20050;-81
2022/04/02 03:20:00;;;;;;;6.40;5.72;;;5.50;99.90;;;1.75;100.00;99655.00;4977391;28;20046;-81
2022/04/02 03:22:35;;;;;;;6.68;5.63;;;4.30;99.90;;;1.79;100.00;99659.31;5009631;28;20408;-81
2022/04/02 03:25:03;;;;;;;7.90;5.78;;;4.80;99.90;;;1.77;100.00;99667.94;4977977;28;20050;-79
2022/04/02 03:27:30;;;;;;;5.90;5.30;;;2.80;99.90;;;1.77;100.00;99661.03;4994272;28;20092;-80
2022/04/02 03:29:57;;;;;;;5.78;5.28;;;2.50;99.90;;;1.76;100.00;99664.50;4960564;28;20120;-81
2022/04/02 03:32:25;;;;;;;6.60;5.30;;;5.10;99.90;;;1.75;100.00;99659.31;4990916;28;20050;-81
2022/04/02 03:34:52;;;;;;;5.53;4.82;;;2.50;99.90;;;1.79;100.00;99664.50;4991735;28;20495;-81
2022/04/02 03:37:19;;;;;;;8.32;6.25;;;4.90;99.90;;;1.76;100.00;99654.13;4959604;28;20053;-79
2022/04/02 03:39:46;;;;;;;6.47;5.68;;;2.20;99.90;;;1.80;100.00;99657.59;4961407;28;20050;-79
2022/04/02 03:42:13;;;;;;;9.27;5.60;;;2.70;99.90;;;1.83;100.00;99674.00;4993861;28;20054;-80
2022/04/02 03:44:41;;;;;;;6.15;5.53;;;5.30;99.90;;;1.80;100.00;99675.75;4978524;28;20050;-80
2022/04/02 03:47:11;;;;;;;8.30;5.65;;;2.90;99.90;;;1.79;100.00;99671.41;4962401;28;20146;-79
2022/04/02 03:49:46;;;;;;;6.30;5.70;;;4.50;99.90;;;1.75;100.00;99667.09;4977724;28;20045;-80
2022/04/02 03:52:20;;;;;;;6.68;4.82;;;5.30;99.90;;;1.78;100.00;99677.47;4976741;28;20053;-80
2022/04/02 03:54:51;;;;;;;9.40;5.90;;;2.60;99.90;;;1.75;100.00;99677.47;4979033;28;20050;-82
2022/04/02 03:57:21;;;;;;;6.00;5.40;;;4.80;99.90;;;1.67;100.00;99675.75;4981812;28;20101;-80
2022/04/02 03:59:54;;;;;;;5.70;5.13;;;5.10;99.90;;;1.69;100.00;99678.31;4978475;28;20050;-80
2022/04/02 04:02:22;;;;;;;6.28;5.25;;;4.40;99.90;;;1.65;100.00;99664.50;4970062;28;20051;-80
2022/04/02 04:04:50;;;;;;;7.15;4.93;;;4.30;99.90;;;1.65;100.00;99686.97;4954980;28;20046;-82
2022/04/02 04:07:17;;;;;;;5.63;4.95;;;5.10;99.90;;;1.69;100.00;99684.38;4957379;28;20061;-80
2022/04/02 04:09:44;;;;;;;5.50;4.95;;;5.00;99.90;;;1.72;100.00;99680.94;4957222;28;20050;-82
2022/04/02 04:12:14;;;;;;;5.57;4.85;;;4.30;99.90;;;1.68;100.00;99676.59;4975110;28;20038;-81
2022/04/02 04:14:45;;;;;;;6.53;4.85;;;5.40;99.90;;;1.61;100.00;99688.69;4980493;28;20677;-82
2022/04/02 04:17:13;;;;;;;8.18;5.82;;;4.30;99.90;;;1.63;100.00;99686.94;4964597;28;20049;-81
2022/04/02 04:19:40;;;;;;;5.95;4.85;;;3.40;99.90;;;1.59;100.00;99695.59;4965838;28;20471;-80
2022/04/02 04:22:10;;;;;;;7.03;5.35;;;2.70;99.90;;;1.65;100.00;99687.84;4984493;28;20078;-80
2022/04/02 04:24:37;;;;;;;7.82;5.57;;;4.50;99.90;;;1.68;100.00;99698.22;5003375;28;20058;-80
2022/04/02 04:27:05;;;;;;;6.53;5.65;;;2.50;99.90;;;1.61;100.00;99701.66;4988136;28;20042;-81
2022/04/02 04:29:36;;;;;;;5.03;4.57;;;2.60;99.90;;;1.60;100.00;99701.66;5002330;28;20504;-80
2022/04/02 04:32:06;;;;;;;4.95;4.45;;;3.90;99.90;;;1.57;100.00;99699.06;4998496;28;20046;-81
2022/04/02 04:34:33;;;;;;;5.20;4.45;;;2.40;99.90;;;1.58;100.00;99719.78;4997372;28;20057;-79
2022/04/02 04:37:03;;;;;;;5.45;4.95;;;2.60;99.90;;;1.56;100.00;99718.94;4998316;28;20069;-81
2022/04/02 04:39:31;;;;;;;4.97;4.32;;;2.40;99.90;;;1.51;100.00;99712.88;5003404;28;20053;-81
2022/04/02 04:42:00;;;;;;;;;;;3.30;99.90;;;1.46;100.00;99714.56;4983019;28;20191;-80
2022/04/02 04:44:32;;;;;;;5.13;4.63;;;5.40;99.90;;;1.52;100.00;99714.59;4979232;28;19928;-80
2022/04/02 04:47:00;;;;;;;6.15;4.45;;;5.50;99.90;;;1.52;100.00;99719.78;4990367;28;20046;-79
2022/04/02 04:49:32;;;;;;;5.32;4.82;;;2.00;99.90;;;1.53;100.00;99718.94;4985455;28;20058;-82
2022/04/02 04:52:04;;;;;;;5.00;4.50;;;4.90;99.90;;;1.51;100.00;99724.09;4988644;28;20050;-80
2022/04/02 04:54:33;;;;;;;8.30;6.03;;;2.40;99.90;;;1.51;100.00;99726.69;5003452;28;20205;-81
2022/04/02 04:57:06;;;;;;;5.10;4.60;;;3.50;99.90;;;1.48;100.00;99725.81;4991331;28;20073;-81
2022/04/02 04:59:35;;;;;;;5.05;4.65;;;4.20;99.90;;;1.46;100.00;99724.94;4996829;28;20042;-79
2022/04/02 05:02:03;;;;;;;5.65;4.50;;;3.40;99.90;;;1.45;100.00;99726.69;5005712;28;20054;-79
2022/04/02 05:04:32;;;;;;;4.60;4.20;;;2.40;99.90;;;1.53;100.00;99737.09;5004313;28;20093;-81
2022/04/02 05:07:01;;;;;;;5.28;4.20;;;4.60;99.90;;;1.45;100.00;99724.09;5005223;28;20657;-81
2022/04/02 05:09:29;;;;;;;4.90;4.40;;;2.20;99.90;;;1.45;100.00;99741.38;4989568;28;20074;-81
2022/04/02 05:12:00;;;;;;;7.13;5.30;;;4.50;99.90;;;1.36;100.00;99735.31;4989949;28;20046;-80
2022/04/02 05:14:29;;;;;;;7.50;5.30;;;2.30;99.90;;;1.45;100.00;99746.53;4987737;28;20050;-80
2022/04/02 05:17:00;;;;;;;4.93;4.53;;;4.10;99.90;;;1.40;100.00;99750.00;4988802;28;20054;-79
2022/04/02 05:19:31;;;;;;;5.90;5.18;;;2.40;99.90;;;1.45;100.00;99757.81;4984250;28;20046;-79
2022/04/02 05:22:03;;;;;;;6.53;4.77;;;4.40;99.90;;;1.38;100.00;99756.91;4986589;28;20054;-80
2022/04/02 05:24:37;;;;;;;6.28;4.93;;;2.40;99.90;;;1.44;100.00;99761.25;4989028;28;20046;-81
2022/04/02 05:27:04;;;;;;;4.88;4.38;;;2.40;99.90;;;1.46;100.00;99761.25;4985183;28;20345;-79
2022/04/02 05:29:31;;;;;;;7.50;5.60;;;2.40;99.90;;;1.47;100.00;99769.03;4995989;28;20116;-80
2022/04/02 05:32:00;;;;;;;7.60;5.15;;;2.50;99.90;;;1.43;100.00;99775.06;4980547;28;20535;-80
2022/04/02 05:34:27;;;;;;;10.02;7.10;;;3.40;99.90;;;1.50;100.00;99778.56;4995835;28;20512;-80
2022/04/02 05:36:59;;;;;;;12.95;11.75;;;2.50;99.90;;;1.48;100.00;99775.94;4997043;28;20054;-79
2022/04/02 05:39:26;;;;;;;12.13;8.75;;;2.40;99.90;;;1.49;100.00;99780.28;4979867;28;20439;-80
2022/04/02 05:41:57;;;;;;;21.65;18.58;;;2.40;99.90;;;1.54;100.00;99785.47;4963731;28;20120;-80
2022/04/02 05:44:24;;;;;;;12.82;10.30;;;5.20;99.90;;;1.51;100.00;99793.25;4977175;28;20093;-78
2022/04/02 05:46:51;;;;;;;10.27;9.35;;;2.40;99.90;;;1.46;100.00;99781.97;4977516;28;20407;-79
2022/04/02 05:49:38;;;;;;;7.10;6.47;;;2.20;99.90;;;1.52;100.00;99795.84;4976406;28;20038;-81
2022/04/02 05:52:05;;;;;;;7.97;6.15;;;4.70;99.90;;;1.53;100.00;99802.75;4980352;28;20141;-80
2022/04/02 05:54:34;;;;;;;9.00;6.00;;;2.40;99.90;;;1.50;100.00;99805.34;4979421;28;20054;-78
2022/04/02 05:57:01;;;;;;;7.05;5.65;;;4.30;99.90;;;1.51;100.00;99799.28;4963157;28;20146;-80
2022/04/02 05:59:29;;;;;;;8.48;5.53;;;2.40;99.90;;;1.54;100.00;99798.44;5002538;28;20302;-81
2022/04/02 06:01:56;;;;;;;6.82;5.03;;;2.20;99.90;;;1.64;100.00;99820.09;4964854;28;20057;-80
2022/04/02 06:04:40;;;;;;;8.32;5.70;;;2.00;99.90;;;1.61;100.00;99820.94;4997137;28;20045;-81
2022/04/02 06:07:07;;;;;;;4.90;4.43;;;4.80;99.90;;;1.56;100.00;99822.66;4995887;28;20801;-81
2022/04/02 06:09:35;;;;;;;7.05;4.90;;;5.10;99.90;;;1.61;100.00;99818.34;4993380;28;20052;-80
2022/04/02 06:12:02;;;;;;;7.15;6.40;;;4.60;99.90;;;1.60;100.00;99815.75;5014898;28;20093;-82
2022/04/02 06:14:29;;;;;;;9.63;7.53;;;2.50;99.90;;;1.61;100.00;99822.69;4997907;28;20643;-82
2022/04/02 06:16:56;;;;;;;11.52;8.10;;;4.50;99.90;;;1.65;100.00;99824.41;4995911;28;20046;-83
2022/04/02 06:19:23;;;;;;;9.70;6.50;;;2.70;99.90;;;1.61;100.00;99828.72;4958710;28;20058;-76
2022/04/02 06:21:50;;;;;;;10.48;7.97;;;4.40;99.90;;;1.70;100.00;99835.66;4990904;28;20046;-76
2022/04/02 06:24:17;;;;;;;8.65;7.07;;;2.50;99.90;;;1.72;100.00;99840.88;4990324;28;20058;-77
2022/04/02 06:26:44;;;;;;;7.18;5.28;;;3.20;99.90;;;1.68;100.00;99853.84;4989915;28;20042;-77
2022/04/02 06:29:11;;;;;;;7.30;6.32;;;2.60;99.90;;;1.70;100.00;99853.81;4992323;28;20046;-78
2022/04/02 06:31:41;;;;;;;5.85;5.18;;;2.70;99.90;;;1.69;100.00;99855.56;4976218;28;20034;-78
2022/04/02 06:34:09;;;;;;;5.40;4.90;;;2.60;99.90;;;1.67;100.00;99854.69;4974679;28;20035;-77
2022/04/02 06:36:36;;;;;;;15.40;5.55;;;4.90;99.90;;;1.68;100.00;99859.03;4975067;28;20050;-77
2022/04/02 06:39:03;;;;;;;9.38;4.78;;;2.50;99.90;;;1.72;100.00;99859.91;4991216;28;20093;-75
2022/04/02 06:41:30;;;;;;;5.70;4.40;;;2.50;99.90;;;1.65;100.00;99866.78;4989413;28;20415;-76
2022/04/02 06:43:57;;;;;;;6.32;5.03;;;2.70;99.90;;;1.70;100.00;99866.78;4989953;28;20407;-76
2022/04/02 06:46:24;;;;;;;6.80;4.35;;;2.50;99.90;;;1.72;100.00;99870.28;4990027;28;20054;-76
2022/04/02 06:48:52;;;;;;;6.03;5.13;;;2.60;99.90;;;1.72;100.00;99870.28;4989569;28;20109;-77
2022/04/02 06:51:20;;;;;;;8.10;6.13;;;2.60;99.90;;;1.73;100.00;99868.53;4990919;28;20414;-77
2022/04/02 06:53:50;;;;;;;10.13;8.10;;;2.60;99.90;;;1.80;100.00;99880.69;4989036;28;20569;-77
2022/04/02 06:56:18;;;;;;;10.80;8.10;;;1.00;99.90;;;1.83;100.00;99880.69;4990214;28;20060;-76
2022/04/02 06:58:48;;;;;;;22.65;13.23;;;2.80;99.90;;;1.84;100.00;99883.28;4981699;28;20051;-77
2022/04/02 07:01:15;;;;;;;17.65;11.20;;;3.90;99.90;;;1.90;100.00;99885.03;4970182;28;20046;-78
2022/04/02 07:04:06;;;;;;;16.40;10.50;;;2.80;99.90;;;1.93;100.00;99897.16;4993978;28;20042;-77
2022/04/02 07:06:38;;;;;;;14.52;8.93;;;2.80;99.90;;;1.96;100.00;99889.38;4978124;28;20133;-78
2022/04/02 07:09:05;;;;;;;10.90;8.93;;;2.80;99.90;;;1.96;100.00;99892.84;4991066;28;20058;-78
2022/04/02 07:11:35;;;;;;;9.35;6.72;;;2.90;99.90;;;1.99;100.00;99897.16;4993758;28;20050;-77
2022/04/02 07:14:02;;;;;;;;;;;2.80;99.90;;;2.00;100.00;99901.50;4995552;28;20034;-78
2022/04/02 07:16:29;;;;;;;8.15;6.07;;;2.80;99.90;;;1.98;100.00;99898.03;4993698;28;20580;-78
2022/04/02 07:18:59;;;;;;;7.05;5.03;;;3.00;99.90;;;1.94;100.00;99902.34;4992854;28;20397;-79
2022/04/02 07:21:28;;;;;;;6.30;4.95;;;2.90;99.90;;;2.01;100.00;99902.38;4984400;28;20050;-78
2022/04/02 07:23:56;;;;;;;6.40;4.70;;;5.40;99.90;;;1.95;100.00;99911.88;4993311;28;20053;-79
2022/04/02 07:26:24;;;;;;;13.57;6.95;;;2.90;99.90;;;2.07;100.00;99913.66;5008089;28;20039;-78
2022/04/02 07:28:54;;;;;;;7.93;5.07;;;2.90;99.90;;;2.07;100.00;99916.25;4991060;28;20042;-79
2022/04/02 07:31:21;;;;;;;7.45;4.97;;;3.00;99.90;;;2.10;100.00;99915.38;4991434;28;20050;-79
2022/04/02 07:33:48;;;;;;;13.65;6.95;;;3.40;99.90;;;2.18;100.00;99930.97;4990919;28;20117;-81
2022/04/02 07:36:51;;;;;;;9.88;5.43;;;3.10;99.90;;;2.17;100.00;99917.16;4996486;28;20073;-79
2022/04/02 07:39:34;;;;;;;6.95;5.13;;;3.10;99.90;;;2.22;100.00;99928.41;4980471;28;20074;-81
2022/04/02 07:42:22;;;;;;;10.27;5.40;;;3.10;99.90;;;2.31;100.00;99935.34;5002355;28;20077;-80
2022/04/02 07:45:08;;;;;;;5.78;5.18;;;3.10;99.90;;;2.45;100.00;99937.13;5016973;28;20048;-80
2022/04/02 07:47:38;;;;;;;7.38;6.13;;;3.30;99.90;;;2.34;100.00;99942.28;4999400;28;20064;-77
2022/04/02 07:50:11;;;;;;;8.07;5.25;;;3.30;99.90;;;2.35;100.00;99944.91;4990055;28;20068;-79
2022/04/02 07:52:43;;;;;;;6.70;5.65;;;3.40;99.90;;;2.64;100.00;99948.41;5010675;28;20128;-80
2022/04/02 07:55:12;;;;;;;6.85;5.35;;;3.40;99.90;;;2.52;100.00;99955.31;5008384;28;20501;-80
2022/04/02 07:57:49;;;;;;;9.68;5.88;;;3.50;99.90;;;2.89;100.00;99956.22;4999929;28;20053;-80
2022/04/02 08:00:21;;;;;;;6.53;5.55;;;3.70;99.90;;;2.85;100.00;99963.19;4983277;28;20053;-79
2022/04/02 08:02:50;;;;;;;6.85;5.00;;;5.10;99.90;;;2.81;100.00;99962.28;4997682;28;20052;-81
2022/04/02 08:05:26;;;;;;;8.40;5.60;;;1.90;99.90;;;2.74;100.00;99970.97;4993766;28;20064;-78
2022/04/02 08:08:00;;;;;;;8.15;6.03;;;5.60;99.90;;;2.79;100.00;99965.75;4982562;28;20054;-78
2022/04/02 08:10:35;;;;;;;5.53;5.00;;;5.80;99.90;;;2.82;100.00;99964.03;4988661;28;20076;-79
2022/04/02 08:13:02;;;;;;;7.85;5.57;;;3.50;99.90;;;2.64;100.00;99974.38;4981812;28;20077;-79
2022/04/02 08:15:30;;;;;;;7.00;4.72;;;3.30;99.90;;;2.71;100.00;99976.13;4996217;28;20857;-79
2022/04/02 08:18:07;;;;;;;6.40;5.70;;;3.90;99.90;;;2.77;100.00;99980.47;4998365;28;20541;-79
2022/04/02 08:20:34;;;;;;;7.53;5.28;;;3.60;99.90;;;2.83;100.00;99983.94;4984156;28;20439;-79
2022/04/02 08:23:01;;;;;;;5.35;4.75;;;4.10;99.90;;;2.87;100.00;99983.94;4997544;28;20049;-79
2022/04/02 08:25:35;;;;;;;7.68;4.93;;;3.80;99.90;;;2.84;100.00;99985.69;5003979;28;20047;-79
2022/04/02 08:28:18;;;;;;;6.53;5.22;;;5.80;99.90;;;2.79;100.00;99989.13;4993894;28;20609;-79
2022/04/02 08:30:54;;;;;;;10.60;5.40;;;3.70;99.90;;;2.83;100.00;99988.28;4978008;28;20528;-78
2022/04/02 08:33:51;;;;;;;6.05;4.93;;;3.70;99.90;;;2.84;100.00;99997.81;4995876;28;20042;-79
2022/04/02 08:36:52;;;;;;;8.05;5.22;;;3.80;99.90;;;2.87;100.00;100002.13;5011303;28;20050;-79
2022/04/02 08:39:55;;;;;;;13.00;6.72;;;6.30;99.90;;;3.05;100.00;100003.91;4974094;28;20078;-80
2022/04/02 08:42:58;;;;;;;5.55;5.05;;;3.90;99.90;;;3.17;100.00;100013.44;4992646;28;20049;-78
2022/04/02 08:45:32;;;;;;;8.38;5.88;;;4.70;99.90;;;3.09;100.00;100009.13;4989501;28;20651;-79
2022/04/02 08:48:21;;;;;;;10.82;5.28;;;6.00;99.90;;;3.24;100.00;100017.78;4989919;28;20053;-78
2022/04/02 08:50:59;;;;;;;11.15;4.95;;;4.10;99.90;;;3.18;100.00;100028.16;4988294;28;20085;-77
2022/04/02 08:53:57;;;;;;;8.85;5.78;;;4.10;99.90;;;3.22;100.00;100032.53;4982410;28;20501;-77
2022/04/02 08:56:27;;;;;;;5.47;4.93;;;4.10;99.90;;;3.23;100.00;100029.91;5005209;28;20046;-77
2022/04/02 08:59:04;;;;;;;6.82;5.35;;;5.50;99.90;;;3.25;100.00;100035.13;4974204;28;20050;-78
2022/04/02 09:02:08;;;;;;;7.68;5.07;;;4.10;99.90;;;3.32;100.00;100041.19;5022011;28;20050;-77
2022/04/02 09:05:08;;;;;;;6.90;6.13;;;4.20;99.90;;;3.28;100.00;100039.44;4976258;28;20062;-80
2022/04/02 09:08:09;;;;;;;;;;;4.10;99.90;;;3.33;100.00;100046.38;4985088;28;20073;-78
2022/04/02 09:11:08;;;;;;;6.88;5.68;;;5.00;99.90;;;3.33;100.00;100053.34;5019643;28;19965;-80
2022/04/02 09:14:16;;;;;;;9.63;6.28;;;4.20;99.90;;;3.31;100.00;100058.53;5005352;28;20537;-79
2022/04/02 09:17:54;;;;;;;10.63;6.88;;;4.20;99.90;;;3.29;100.00;100060.25;4990133;28;20042;-80
2022/04/02 09:20:49;;;;;;;9.25;6.05;;;4.20;99.90;;;3.39;100.00;100063.72;4979500;28;20049;-79
2022/04/02 09:23:45;;;;;;;10.48;6.85;;;4.20;99.90;;;3.42;100.00;100065.47;4991092;28;20046;-79
2022/04/02 09:26:58;;;;;;;8.05;6.95;;;4.30;99.90;;;3.49;100.00;100068.06;4990088;28;20050;-79
2022/04/02 09:29:48;;;;;;;7.60;6.57;;;4.30;99.90;;;3.50;100.00;100074.13;4986088;28;20117;-80
2022/04/02 09:32:43;;;;;;;7.15;5.32;;;5.70;99.90;;;3.38;100.00;100078.47;4998752;28;20713;-79
2022/04/02 09:35:38;;;;;;;9.50;6.18;;;4.30;99.90;;;3.44;100.00;100080.22;4997620;28;20472;-82
2022/04/02 09:38:22;;;;;;;10.15;5.95;;;4.30;99.90;;;3.45;100.00;100076.75;5012139;28;20117;-80
2022/04/02 09:40:52;;;;;;;9.38;6.07;;;5.10;99.90;;;3.53;100.00;100079.34;4996378;28;20074;-78
2022/04/02 09:43:28;;;;;;;13.77;7.50;;;4.60;99.90;;;3.53;100.00;100090.63;4988888;28;20530;-80
2022/04/02 09:46:36;;;;;;;7.35;5.75;;;4.30;99.90;;;3.60;100.00;100093.25;5008139;28;20052;-79
2022/04/02 09:49:32;;;;;;;10.25;6.35;;;4.40;99.90;;;3.53;100.00;100089.75;5008749;28;20085;-78
2022/04/02 09:52:13;;;;;;;8.30;5.60;;;4.40;99.90;;;3.45;100.00;100094.97;5004472;28;20042;-80
2022/04/02 09:55:29;;;;;;;6.53;5.82;;;4.40;99.90;;;3.42;100.00;100088.88;4994834;28;20038;-78
2022/04/02 09:58:20;;;;;;;6.97;6.28;;;4.20;99.90;;;3.37;100.00;100100.16;5016803;28;20054;-81
2022/04/02 10:01:04;;;;;;;6.80;5.88;;;4.30;99.90;;;3.40;100.00;100104.47;5012887;28;20089;-81
2022/04/02 10:03:55;;;;;;;7.22;5.47;;;4.20;99.90;;;3.45;100.00;100104.47;5010686;28;20081;-83
2022/04/02 10:06:41;;;;;;;11.07;6.65;;;4.30;99.90;;;3.33;100.00;100103.59;4992055;28;20507;-82
2022/04/02 10:09:17;;;;;;;7.43;6.18;;;4.30;99.90;;;3.27;100.00;100119.19;5001663;28;20530;-79
2022/04/02 10:12:09;;;;;;;11.68;7.10;;;4.30;99.90;;;3.49;100.00;100112.31;4990042;28;20042;-81
2022/04/02 10:14:38;;;;;;;7.38;5.40;;;6.60;99.90;;;3.57;100.00;100107.09;4989723;28;20522;-79
2022/04/02 10:17:08;;;;;;;5.63;5.05;;;5.50;99.90;;;3.67;100.00;100113.16;4994068;28;20054;-80
2022/04/02 10:19:39;;;;;;;8.10;5.85;;;4.40;99.90;;;3.62;100.00;100114.91;4987749;28;20061;-80
2022/04/02 10:22:09;;;;;;;6.00;5.30;;;7.00;99.90;;;3.61;100.00;100116.63;5002484;28;20050;-81
2022/04/02 10:24:38;;;;;;;;;;;6.70;99.90;;;3.68;100.00;100114.91;4988024;28;20133;-79
2022/04/02 10:27:11;;;;;;;5.68;5.10;;;7.00;99.90;;;3.70;100.00;100105.38;4982727;28;19926;-79
2022/04/02 10:30:07;;;;;;;6.55;4.93;;;4.50;99.90;;;3.81;100.00;100118.38;4976420;28;20049;-80
2022/04/02 10:35:51;;;;;;;7.13;5.47;;;4.60;99.90;;;3.83;100.00;100114.06;5005009;28;20058;-80
2022/04/02 10:38:34;;;;;;;7.10;5.90;;;4.70;99.90;;;3.84;100.00;100121.00;4985600;28;20653;-81
2022/04/02 10:41:20;;;;;;;7.13;6.05;;;4.70;99.90;;;3.72;100.00;100119.25;4980127;28;20578;-80
2022/04/02 10:44:08;;;;;;;8.25;6.38;;;6.70;99.90;;;3.64;100.00;100114.03;4979890;28;20511;-79
2022/04/02 10:46:41;;;;;;;9.77;5.85;;;4.60;99.90;;;3.69;100.00;100127.94;4983621;28;20042;-80
2022/04/02 10:49:16;;;;;;;7.05;5.50;;;5.80;99.90;;;3.68;100.00;100126.19;4980653;28;20042;-79
2022/04/02 10:51:47;;;;;;;5.70;5.07;;;4.60;99.90;;;3.58;100.00;100121.84;4986524;28;20060;-80
2022/04/02 10:54:22;;;;;;;6.07;5.13;;;5.00;99.90;;;3.61;100.00;100124.44;4970937;28;20066;-80
2022/04/02 10:56:50;;;;;;;6.90;5.30;;;6.40;99.90;;;3.39;100.00;100136.56;4981224;28;20057;-79
2022/04/02 10:59:19;;;;;;;6.25;4.95;;;5.40;99.90;;;3.55;100.00;100134.84;4991234;28;20270;-80